sensor_id;sensor_type;location;lat;lon;timestamp;P1;durP1;ratioP1;P2;durP2;ratioP2
41903;SDS011;27586;51.124;4.182;2024-03-22T00:00:38;33.42;;;28.80;;
41903;SDS011;27586;51.124;4.182;2024-03-22T00:03:04;32.40;;;28.50;;
41903;SDS011;27586;51.124;4.182;2024-03-22T00:05:30;32.00;;;28.33;;
41903;SDS011;27586;51.124;4.182;2024-03-22T00:07:56;33.80;;;29.02;;
41903;SDS011;27586;51.124;4.182;2024-03-22T00:10:21;32.25;;;27.92;;
41903;SDS011;27586;51.124;4.182;2024-03-22T00:12:48;31.30;;;27.95;;
41903;SDS011;27586;51.124;4.182;2024-03-22T00:15:14;30.88;;;27.65;;
41903;SDS011;27586;51.124;4.182;2024-03-22T00:17:40;32.28;;;27.30;;
41903;SDS011;27586;51.124;4.182;2024-03-22T00:20:07;29.65;;;26.75;;
41903;SDS011;27586;51.124;4.182;2024-03-22T00:22:33;30.63;;;27.30;;
41903;SDS011;27586;51.124;4.182;2024-03-22T00:24:59;30.48;;;27.27;;
41903;SDS011;27586;51.124;4.182;2024-03-22T00:27:24;31.38;;;28.13;;
41903;SDS011;27586;51.124;4.182;2024-03-22T00:29:50;33.58;;;29.13;;
41903;SDS011;27586;51.124;4.182;2024-03-22T00:32:16;32.55;;;28.40;;
41903;SDS011;27586;51.124;4.182;2024-03-22T00:34:41;29.55;;;26.35;;
41903;SDS011;27586;51.124;4.182;2024-03-22T00:37:08;32.33;;;27.67;;
41903;SDS011;27586;51.124;4.182;2024-03-22T00:39:33;30.25;;;27.15;;
41903;SDS011;27586;51.124;4.182;2024-03-22T00:41:59;31.10;;;27.73;;
41903;SDS011;27586;51.124;4.182;2024-03-22T00:44:25;32.72;;;27.90;;
41903;SDS011;27586;51.124;4.182;2024-03-22T00:46:50;30.17;;;27.10;;
41903;SDS011;27586;51.124;4.182;2024-03-22T00:49:16;35.10;;;29.50;;
41903;SDS011;27586;51.124;4.182;2024-03-22T00:51:41;33.40;;;27.92;;
41903;SDS011;27586;51.124;4.182;2024-03-22T00:54:09;31.90;;;25.90;;
41903;SDS011;27586;51.124;4.182;2024-03-22T00:56:34;31.25;;;27.85;;
41903;SDS011;27586;51.124;4.182;2024-03-22T00:59:00;30.48;;;27.23;;
41903;SDS011;27586;51.124;4.182;2024-03-22T01:01:26;32.53;;;27.00;;
41903;SDS011;27586;51.124;4.182;2024-03-22T01:03:52;30.35;;;25.98;;
41903;SDS011;27586;51.124;4.182;2024-03-22T01:06:17;28.63;;;25.58;;
41903;SDS011;27586;51.124;4.182;2024-03-22T01:08:48;28.40;;;25.45;;
41903;SDS011;27586;51.124;4.182;2024-03-22T01:11:14;28.10;;;24.95;;
41903;SDS011;27586;51.124;4.182;2024-03-22T01:13:40;29.70;;;25.67;;
41903;SDS011;27586;51.124;4.182;2024-03-22T01:16:05;29.42;;;24.70;;
41903;SDS011;27586;51.124;4.182;2024-03-22T01:18:34;28.50;;;24.98;;
41903;SDS011;27586;51.124;4.182;2024-03-22T01:21:03;27.55;;;24.60;;
41903;SDS011;27586;51.124;4.182;2024-03-22T01:23:30;28.60;;;25.50;;
41903;SDS011;27586;51.124;4.182;2024-03-22T01:25:56;27.23;;;24.33;;
41903;SDS011;27586;51.124;4.182;2024-03-22T01:28:22;29.80;;;26.38;;
41903;SDS011;27586;51.124;4.182;2024-03-22T01:30:47;27.88;;;24.88;;
41903;SDS011;27586;51.124;4.182;2024-03-22T01:33:13;28.77;;;25.70;;
41903;SDS011;27586;51.124;4.182;2024-03-22T01:35:39;28.55;;;25.55;;
41903;SDS011;27586;51.124;4.182;2024-03-22T01:38:04;28.65;;;25.55;;
41903;SDS011;27586;51.124;4.182;2024-03-22T01:40:30;27.95;;;24.83;;
41903;SDS011;27586;51.124;4.182;2024-03-22T01:42:56;27.48;;;24.27;;
41903;SDS011;27586;51.124;4.182;2024-03-22T01:45:22;29.75;;;25.02;;
41903;SDS011;27586;51.124;4.182;2024-03-22T01:47:49;30.33;;;24.30;;
41903;SDS011;27586;51.124;4.182;2024-03-22T01:50:16;28.67;;;25.20;;
41903;SDS011;27586;51.124;4.182;2024-03-22T01:52:42;28.65;;;25.52;;
41903;SDS011;27586;51.124;4.182;2024-03-22T01:55:08;28.48;;;25.55;;
41903;SDS011;27586;51.124;4.182;2024-03-22T01:57:34;31.80;;;26.20;;
41903;SDS011;27586;51.124;4.182;2024-03-22T02:00:01;27.80;;;24.73;;
41903;SDS011;27586;51.124;4.182;2024-03-22T02:02:26;28.20;;;25.15;;
41903;SDS011;27586;51.124;4.182;2024-03-22T02:04:52;31.48;;;26.10;;
41903;SDS011;27586;51.124;4.182;2024-03-22T02:07:18;27.98;;;24.00;;
41903;SDS011;27586;51.124;4.182;2024-03-22T02:09:43;28.52;;;24.17;;
41903;SDS011;27586;51.124;4.182;2024-03-22T02:12:09;29.05;;;24.77;;
41903;SDS011;27586;51.124;4.182;2024-03-22T02:14:35;28.80;;;22.92;;
41903;SDS011;27586;51.124;4.182;2024-03-22T02:17:01;27.73;;;24.67;;
41903;SDS011;27586;51.124;4.182;2024-03-22T02:19:27;27.20;;;23.75;;
41903;SDS011;27586;51.124;4.182;2024-03-22T02:21:52;28.90;;;24.58;;
41903;SDS011;27586;51.124;4.182;2024-03-22T02:24:18;28.95;;;25.02;;
41903;SDS011;27586;51.124;4.182;2024-03-22T02:26:44;26.38;;;23.50;;
41903;SDS011;27586;51.124;4.182;2024-03-22T02:29:09;27.30;;;23.67;;
41903;SDS011;27586;51.124;4.182;2024-03-22T02:31:35;25.52;;;22.85;;
41903;SDS011;27586;51.124;4.182;2024-03-22T02:34:00;25.13;;;22.52;;
41903;SDS011;27586;51.124;4.182;2024-03-22T02:36:26;26.67;;;22.60;;
41903;SDS011;27586;51.124;4.182;2024-03-22T02:38:52;24.73;;;22.02;;
41903;SDS011;27586;51.124;4.182;2024-03-22T02:41:17;25.15;;;22.42;;
41903;SDS011;27586;51.124;4.182;2024-03-22T02:43:43;25.80;;;22.85;;
41903;SDS011;27586;51.124;4.182;2024-03-22T02:46:09;26.83;;;22.42;;
41903;SDS011;27586;51.124;4.182;2024-03-22T02:48:34;23.25;;;20.45;;
41903;SDS011;27586;51.124;4.182;2024-03-22T02:51:00;26.50;;;22.00;;
41903;SDS011;27586;51.124;4.182;2024-03-22T02:53:26;25.00;;;19.83;;
41903;SDS011;27586;51.124;4.182;2024-03-22T02:55:51;21.83;;;18.98;;
41903;SDS011;27586;51.124;4.182;2024-03-22T02:58:18;21.25;;;18.98;;
41903;SDS011;27586;51.124;4.182;2024-03-22T03:00:45;22.05;;;18.20;;
41903;SDS011;27586;51.124;4.182;2024-03-22T03:03:10;21.27;;;18.50;;
41903;SDS011;27586;51.124;4.182;2024-03-22T03:05:36;21.05;;;17.83;;
41903;SDS011;27586;51.124;4.182;2024-03-22T03:08:02;20.85;;;16.95;;
41903;SDS011;27586;51.124;4.182;2024-03-22T03:10:28;23.33;;;18.27;;
41903;SDS011;27586;51.124;4.182;2024-03-22T03:12:54;22.17;;;17.75;;
41903;SDS011;27586;51.124;4.182;2024-03-22T03:15:20;21.15;;;18.15;;
41903;SDS011;27586;51.124;4.182;2024-03-22T03:17:46;19.73;;;16.63;;
41903;SDS011;27586;51.124;4.182;2024-03-22T03:20:12;24.08;;;18.60;;
41903;SDS011;27586;51.124;4.182;2024-03-22T03:22:41;20.95;;;17.15;;
41903;SDS011;27586;51.124;4.182;2024-03-22T03:25:07;22.05;;;18.05;;
41903;SDS011;27586;51.124;4.182;2024-03-22T03:27:33;21.40;;;18.67;;
41903;SDS011;27586;51.124;4.182;2024-03-22T03:29:59;21.73;;;17.90;;
41903;SDS011;27586;51.124;4.182;2024-03-22T03:32:25;20.13;;;17.90;;
41903;SDS011;27586;51.124;4.182;2024-03-22T03:34:51;21.10;;;17.30;;
41903;SDS011;27586;51.124;4.182;2024-03-22T03:37:17;21.48;;;18.42;;
41903;SDS011;27586;51.124;4.182;2024-03-22T03:39:42;22.50;;;18.45;;
41903;SDS011;27586;51.124;4.182;2024-03-22T03:42:08;22.80;;;18.88;;
41903;SDS011;27586;51.124;4.182;2024-03-22T03:44:35;22.30;;;17.88;;
41903;SDS011;27586;51.124;4.182;2024-03-22T03:47:01;20.58;;;18.15;;
41903;SDS011;27586;51.124;4.182;2024-03-22T03:49:27;23.15;;;17.75;;
41903;SDS011;27586;51.124;4.182;2024-03-22T03:51:53;20.98;;;17.77;;
41903;SDS011;27586;51.124;4.182;2024-03-22T03:54:18;19.17;;;16.55;;
41903;SDS011;27586;51.124;4.182;2024-03-22T03:56:44;18.63;;;16.65;;
41903;SDS011;27586;51.124;4.182;2024-03-22T03:59:10;17.95;;;16.10;;
41903;SDS011;27586;51.124;4.182;2024-03-22T04:01:35;19.63;;;17.02;;
41903;SDS011;27586;51.124;4.182;2024-03-22T04:04:02;18.27;;;15.98;;
41903;SDS011;27586;51.124;4.182;2024-03-22T04:06:28;19.20;;;16.52;;
41903;SDS011;27586;51.124;4.182;2024-03-22T04:08:54;16.50;;;14.60;;
41903;SDS011;27586;51.124;4.182;2024-03-22T04:11:19;17.35;;;15.63;;
41903;SDS011;27586;51.124;4.182;2024-03-22T04:13:45;17.40;;;15.55;;
41903;SDS011;27586;51.124;4.182;2024-03-22T04:16:12;16.48;;;14.77;;
41903;SDS011;27586;51.124;4.182;2024-03-22T04:18:38;18.83;;;14.95;;
41903;SDS011;27586;51.124;4.182;2024-03-22T04:21:04;15.68;;;14.07;;
41903;SDS011;27586;51.124;4.182;2024-03-22T04:23:29;15.70;;;14.00;;
41903;SDS011;27586;51.124;4.182;2024-03-22T04:25:55;17.73;;;15.02;;
41903;SDS011;27586;51.124;4.182;2024-03-22T04:28:25;16.38;;;14.68;;
41903;SDS011;27586;51.124;4.182;2024-03-22T04:30:58;18.00;;;14.50;;
41903;SDS011;27586;51.124;4.182;2024-03-22T04:33:25;15.98;;;14.38;;
41903;SDS011;27586;51.124;4.182;2024-03-22T04:35:52;17.08;;;15.05;;
41903;SDS011;27586;51.124;4.182;2024-03-22T04:38:18;15.77;;;14.18;;
41903;SDS011;27586;51.124;4.182;2024-03-22T04:40:44;15.45;;;13.68;;
41903;SDS011;27586;51.124;4.182;2024-03-22T04:43:09;16.38;;;14.77;;
41903;SDS011;27586;51.124;4.182;2024-03-22T04:45:35;16.67;;;14.98;;
41903;SDS011;27586;51.124;4.182;2024-03-22T04:48:01;15.57;;;13.98;;
41903;SDS011;27586;51.124;4.182;2024-03-22T04:50:29;15.80;;;14.20;;
41903;SDS011;27586;51.124;4.182;2024-03-22T04:52:56;15.75;;;13.50;;
41903;SDS011;27586;51.124;4.182;2024-03-22T04:55:22;15.45;;;13.85;;
41903;SDS011;27586;51.124;4.182;2024-03-22T04:57:47;14.85;;;13.35;;
41903;SDS011;27586;51.124;4.182;2024-03-22T05:00:13;14.52;;;13.13;;
41903;SDS011;27586;51.124;4.182;2024-03-22T05:02:39;16.27;;;13.40;;
41903;SDS011;27586;51.124;4.182;2024-03-22T05:05:05;14.18;;;12.70;;
41903;SDS011;27586;51.124;4.182;2024-03-22T05:07:32;14.65;;;13.15;;
41903;SDS011;27586;51.124;4.182;2024-03-22T05:09:58;13.80;;;12.45;;
41903;SDS011;27586;51.124;4.182;2024-03-22T05:12:24;14.75;;;13.15;;
41903;SDS011;27586;51.124;4.182;2024-03-22T05:14:49;14.80;;;13.32;;
41903;SDS011;27586;51.124;4.182;2024-03-22T05:17:15;16.30;;;14.63;;
41903;SDS011;27586;51.124;4.182;2024-03-22T05:19:40;17.98;;;16.17;;
41903;SDS011;27586;51.124;4.182;2024-03-22T05:22:06;18.02;;;16.23;;
41903;SDS011;27586;51.124;4.182;2024-03-22T05:24:32;20.70;;;18.70;;
41903;SDS011;27586;51.124;4.182;2024-03-22T05:26:58;20.65;;;18.65;;
41903;SDS011;27586;51.124;4.182;2024-03-22T05:29:23;22.35;;;20.00;;
41903;SDS011;27586;51.124;4.182;2024-03-22T05:31:49;19.27;;;17.30;;
41903;SDS011;27586;51.124;4.182;2024-03-22T05:34:17;17.98;;;16.15;;
41903;SDS011;27586;51.124;4.182;2024-03-22T05:36:43;17.50;;;15.68;;
41903;SDS011;27586;51.124;4.182;2024-03-22T05:39:09;16.77;;;14.95;;
41903;SDS011;27586;51.124;4.182;2024-03-22T05:41:38;14.82;;;13.30;;
41903;SDS011;27586;51.124;4.182;2024-03-22T05:44:04;14.88;;;13.13;;
41903;SDS011;27586;51.124;4.182;2024-03-22T05:46:30;15.23;;;13.18;;
41903;SDS011;27586;51.124;4.182;2024-03-22T05:48:59;13.80;;;12.38;;
41903;SDS011;27586;51.124;4.182;2024-03-22T05:51:25;12.65;;;11.25;;
41903;SDS011;27586;51.124;4.182;2024-03-22T05:53:51;16.20;;;13.05;;
41903;SDS011;27586;51.124;4.182;2024-03-22T05:56:17;17.35;;;13.15;;
41903;SDS011;27586;51.124;4.182;2024-03-22T05:58:42;13.30;;;11.80;;
41903;SDS011;27586;51.124;4.182;2024-03-22T06:01:08;13.25;;;11.57;;
41903;SDS011;27586;51.124;4.182;2024-03-22T06:03:34;12.70;;;11.23;;
41903;SDS011;27586;51.124;4.182;2024-03-22T06:05:59;13.35;;;11.95;;
41903;SDS011;27586;51.124;4.182;2024-03-22T06:08:26;12.95;;;11.00;;
41903;SDS011;27586;51.124;4.182;2024-03-22T06:10:55;12.10;;;10.90;;
41903;SDS011;27586;51.124;4.182;2024-03-22T06:13:23;14.85;;;11.98;;
41903;SDS011;27586;51.124;4.182;2024-03-22T06:15:49;12.35;;;11.02;;
41903;SDS011;27586;51.124;4.182;2024-03-22T06:18:15;12.05;;;10.43;;
41903;SDS011;27586;51.124;4.182;2024-03-22T06:20:41;11.00;;;9.85;;
41903;SDS011;27586;51.124;4.182;2024-03-22T06:23:09;10.65;;;9.65;;
41903;SDS011;27586;51.124;4.182;2024-03-22T06:25:35;10.25;;;9.20;;
41903;SDS011;27586;51.124;4.182;2024-03-22T06:28:01;10.40;;;9.38;;
41903;SDS011;27586;51.124;4.182;2024-03-22T06:30:27;10.60;;;9.02;;
41903;SDS011;27586;51.124;4.182;2024-03-22T06:32:53;9.77;;;8.88;;
41903;SDS011;27586;51.124;4.182;2024-03-22T06:35:19;10.57;;;9.48;;
41903;SDS011;27586;51.124;4.182;2024-03-22T06:37:45;11.13;;;9.23;;
41903;SDS011;27586;51.124;4.182;2024-03-22T06:40:11;10.82;;;9.73;;
41903;SDS011;27586;51.124;4.182;2024-03-22T06:42:37;9.98;;;9.07;;
41903;SDS011;27586;51.124;4.182;2024-03-22T06:45:03;10.23;;;9.13;;
41903;SDS011;27586;51.124;4.182;2024-03-22T06:47:29;9.23;;;8.25;;
41903;SDS011;27586;51.124;4.182;2024-03-22T06:49:54;9.77;;;7.28;;
41903;SDS011;27586;51.124;4.182;2024-03-22T06:52:20;8.65;;;7.40;;
41903;SDS011;27586;51.124;4.182;2024-03-22T06:54:46;9.00;;;6.78;;
41903;SDS011;27586;51.124;4.182;2024-03-22T06:57:12;7.50;;;6.53;;
41903;SDS011;27586;51.124;4.182;2024-03-22T06:59:37;8.60;;;6.00;;
41903;SDS011;27586;51.124;4.182;2024-03-22T07:02:03;7.38;;;6.38;;
41903;SDS011;27586;51.124;4.182;2024-03-22T07:04:29;6.60;;;5.95;;
41903;SDS011;27586;51.124;4.182;2024-03-22T07:06:55;8.57;;;6.15;;
41903;SDS011;27586;51.124;4.182;2024-03-22T07:09:20;7.47;;;6.72;;
41903;SDS011;27586;51.124;4.182;2024-03-22T07:11:46;7.05;;;6.35;;
41903;SDS011;27586;51.124;4.182;2024-03-22T07:14:12;9.00;;;7.10;;
41903;SDS011;27586;51.124;4.182;2024-03-22T07:16:37;7.82;;;6.63;;
41903;SDS011;27586;51.124;4.182;2024-03-22T07:19:03;8.57;;;7.43;;
41903;SDS011;27586;51.124;4.182;2024-03-22T07:21:29;7.15;;;6.47;;
41903;SDS011;27586;51.124;4.182;2024-03-22T07:23:56;7.32;;;6.60;;
41903;SDS011;27586;51.124;4.182;2024-03-22T07:26:21;8.10;;;7.20;;
41903;SDS011;27586;51.124;4.182;2024-03-22T07:28:47;9.38;;;7.20;;
41903;SDS011;27586;51.124;4.182;2024-03-22T07:31:13;7.45;;;6.70;;
41903;SDS011;27586;51.124;4.182;2024-03-22T07:33:39;8.57;;;7.22;;
41903;SDS011;27586;51.124;4.182;2024-03-22T07:36:05;7.50;;;6.70;;
41903;SDS011;27586;51.124;4.182;2024-03-22T07:38:31;8.82;;;7.22;;
41903;SDS011;27586;51.124;4.182;2024-03-22T07:40:57;7.03;;;6.32;;
41903;SDS011;27586;51.124;4.182;2024-03-22T07:43:22;9.35;;;7.10;;
41903;SDS011;27586;51.124;4.182;2024-03-22T07:45:48;9.70;;;7.15;;
41903;SDS011;27586;51.124;4.182;2024-03-22T07:48:14;7.95;;;7.15;;
41903;SDS011;27586;51.124;4.182;2024-03-22T07:50:40;7.88;;;7.18;;
41903;SDS011;27586;51.124;4.182;2024-03-22T07:53:05;7.68;;;7.05;;
41903;SDS011;27586;51.124;4.182;2024-03-22T07:55:31;8.98;;;6.90;;
41903;SDS011;27586;51.124;4.182;2024-03-22T07:57:57;9.57;;;7.60;;
41903;SDS011;27586;51.124;4.182;2024-03-22T08:00:22;8.10;;;7.30;;
41903;SDS011;27586;51.124;4.182;2024-03-22T08:02:50;7.82;;;7.13;;
41903;SDS011;27586;51.124;4.182;2024-03-22T08:05:16;7.45;;;6.75;;
41903;SDS011;27586;51.124;4.182;2024-03-22T08:07:42;7.68;;;6.57;;
41903;SDS011;27586;51.124;4.182;2024-03-22T08:10:08;7.20;;;6.50;;
41903;SDS011;27586;51.124;4.182;2024-03-22T08:12:34;7.55;;;6.85;;
41903;SDS011;27586;51.124;4.182;2024-03-22T08:15:00;6.88;;;6.18;;
41903;SDS011;27586;51.124;4.182;2024-03-22T08:17:26;10.25;;;6.45;;
41903;SDS011;27586;51.124;4.182;2024-03-22T08:19:51;9.50;;;6.95;;
41903;SDS011;27586;51.124;4.182;2024-03-22T08:22:18;8.27;;;7.07;;
41903;SDS011;27586;51.124;4.182;2024-03-22T08:24:43;9.23;;;7.72;;
41903;SDS011;27586;51.124;4.182;2024-03-22T08:27:09;8.30;;;7.07;;
41903;SDS011;27586;51.124;4.182;2024-03-22T08:29:35;9.60;;;6.68;;
41903;SDS011;27586;51.124;4.182;2024-03-22T08:32:00;7.53;;;6.78;;
41903;SDS011;27586;51.124;4.182;2024-03-22T08:34:29;7.00;;;6.13;;
41903;SDS011;27586;51.124;4.182;2024-03-22T08:36:58;9.00;;;6.57;;
41903;SDS011;27586;51.124;4.182;2024-03-22T08:39:24;9.02;;;6.97;;
41903;SDS011;27586;51.124;4.182;2024-03-22T08:41:49;10.40;;;6.75;;
41903;SDS011;27586;51.124;4.182;2024-03-22T08:44:16;9.73;;;7.32;;
41903;SDS011;27586;51.124;4.182;2024-03-22T08:46:42;7.82;;;7.13;;
41903;SDS011;27586;51.124;4.182;2024-03-22T08:49:07;7.95;;;6.50;;
41903;SDS011;27586;51.124;4.182;2024-03-22T08:51:33;9.60;;;7.50;;
41903;SDS011;27586;51.124;4.182;2024-03-22T08:53:59;8.98;;;7.20;;
41903;SDS011;27586;51.124;4.182;2024-03-22T08:56:25;7.93;;;7.07;;
41903;SDS011;27586;51.124;4.182;2024-03-22T08:58:51;9.57;;;6.97;;
41903;SDS011;27586;51.124;4.182;2024-03-22T09:01:17;7.97;;;7.18;;
41903;SDS011;27586;51.124;4.182;2024-03-22T09:03:43;8.07;;;7.13;;
41903;SDS011;27586;51.124;4.182;2024-03-22T09:06:11;11.40;;;7.18;;
41903;SDS011;27586;51.124;4.182;2024-03-22T09:08:37;7.90;;;6.90;;
41903;SDS011;27586;51.124;4.182;2024-03-22T09:11:03;9.55;;;6.97;;
41903;SDS011;27586;51.124;4.182;2024-03-22T09:13:29;8.00;;;6.45;;
41903;SDS011;27586;51.124;4.182;2024-03-22T09:15:57;9.55;;;7.25;;
41903;SDS011;27586;51.124;4.182;2024-03-22T09:18:24;9.77;;;7.47;;
41903;SDS011;27586;51.124;4.182;2024-03-22T09:20:50;12.95;;;7.03;;
41903;SDS011;27586;51.124;4.182;2024-03-22T09:23:16;9.88;;;6.72;;
41903;SDS011;27586;51.124;4.182;2024-03-22T09:25:42;9.25;;;7.65;;
41903;SDS011;27586;51.124;4.182;2024-03-22T09:28:08;16.45;;;7.78;;
41903;SDS011;27586;51.124;4.182;2024-03-22T09:30:37;9.40;;;6.68;;
41903;SDS011;27586;51.124;4.182;2024-03-22T09:33:03;7.78;;;6.50;;
41903;SDS011;27586;51.124;4.182;2024-03-22T09:35:29;7.63;;;6.82;;
41903;SDS011;27586;51.124;4.182;2024-03-22T09:37:56;11.80;;;7.38;;
41903;SDS011;27586;51.124;4.182;2024-03-22T09:40:21;7.47;;;6.55;;
41903;SDS011;27586;51.124;4.182;2024-03-22T09:42:47;10.05;;;6.65;;
41903;SDS011;27586;51.124;4.182;2024-03-22T09:45:14;8.02;;;6.53;;
41903;SDS011;27586;51.124;4.182;2024-03-22T09:47:43;8.93;;;6.80;;
41903;SDS011;27586;51.124;4.182;2024-03-22T09:50:10;9.13;;;6.18;;
41903;SDS011;27586;51.124;4.182;2024-03-22T09:52:38;11.02;;;6.80;;
41903;SDS011;27586;51.124;4.182;2024-03-22T09:55:05;9.35;;;6.40;;
41903;SDS011;27586;51.124;4.182;2024-03-22T09:57:31;8.10;;;6.28;;
41903;SDS011;27586;51.124;4.182;2024-03-22T09:59:59;7.90;;;5.72;;
41903;SDS011;27586;51.124;4.182;2024-03-22T10:02:24;10.13;;;6.88;;
41903;SDS011;27586;51.124;4.182;2024-03-22T10:04:51;9.77;;;6.22;;
41903;SDS011;27586;51.124;4.182;2024-03-22T10:07:17;7.88;;;5.95;;
41903;SDS011;27586;51.124;4.182;2024-03-22T10:09:43;11.57;;;6.78;;
41903;SDS011;27586;51.124;4.182;2024-03-22T10:12:09;10.23;;;6.57;;
41903;SDS011;27586;51.124;4.182;2024-03-22T10:14:35;10.35;;;6.88;;
41903;SDS011;27586;51.124;4.182;2024-03-22T10:17:02;8.90;;;5.93;;
41903;SDS011;27586;51.124;4.182;2024-03-22T10:19:28;10.60;;;6.38;;
41903;SDS011;27586;51.124;4.182;2024-03-22T10:24:26;8.48;;;6.32;;
41903;SDS011;27586;51.124;4.182;2024-03-22T10:26:53;9.45;;;5.93;;
41903;SDS011;27586;51.124;4.182;2024-03-22T10:29:19;11.05;;;6.40;;
41903;SDS011;27586;51.124;4.182;2024-03-22T10:31:47;8.32;;;6.10;;
41903;SDS011;27586;51.124;4.182;2024-03-22T10:34:13;12.20;;;6.47;;
41903;SDS011;27586;51.124;4.182;2024-03-22T10:36:40;7.00;;;6.30;;
41903;SDS011;27586;51.124;4.182;2024-03-22T10:39:07;9.52;;;6.20;;
41903;SDS011;27586;51.124;4.182;2024-03-22T10:41:36;12.82;;;6.57;;
41903;SDS011;27586;51.124;4.182;2024-03-22T10:44:02;9.20;;;6.95;;
41903;SDS011;27586;51.124;4.182;2024-03-22T10:46:29;10.60;;;6.38;;
41903;SDS011;27586;51.124;4.182;2024-03-22T10:48:55;7.55;;;5.97;;
41903;SDS011;27586;51.124;4.182;2024-03-22T10:51:22;7.88;;;6.38;;
41903;SDS011;27586;51.124;4.182;2024-03-22T10:53:50;9.40;;;6.05;;
41903;SDS011;27586;51.124;4.182;2024-03-22T10:56:19;10.60;;;7.13;;
41903;SDS011;27586;51.124;4.182;2024-03-22T10:58:48;7.22;;;6.35;;
41903;SDS011;27586;51.124;4.182;2024-03-22T11:01:23;8.82;;;6.82;;
41903;SDS011;27586;51.124;4.182;2024-03-22T11:03:50;10.82;;;6.65;;
41903;SDS011;27586;51.124;4.182;2024-03-22T11:06:19;10.48;;;6.90;;
41903;SDS011;27586;51.124;4.182;2024-03-22T11:08:49;7.95;;;6.10;;
41903;SDS011;27586;51.124;4.182;2024-03-22T11:11:17;8.93;;;6.63;;
41903;SDS011;27586;51.124;4.182;2024-03-22T11:13:46;10.43;;;7.18;;
41903;SDS011;27586;51.124;4.182;2024-03-22T11:16:15;11.20;;;7.07;;
41903;SDS011;27586;51.124;4.182;2024-03-22T11:18:41;10.68;;;6.80;;
41903;SDS011;27586;51.124;4.182;2024-03-22T11:21:08;10.63;;;6.18;;
41903;SDS011;27586;51.124;4.182;2024-03-22T11:23:34;10.57;;;6.45;;
41903;SDS011;27586;51.124;4.182;2024-03-22T11:26:02;11.85;;;6.28;;
41903;SDS011;27586;51.124;4.182;2024-03-22T11:28:28;9.40;;;6.63;;
41903;SDS011;27586;51.124;4.182;2024-03-22T11:30:54;9.07;;;7.07;;
41903;SDS011;27586;51.124;4.182;2024-03-22T11:33:20;7.05;;;6.30;;
41903;SDS011;27586;51.124;4.182;2024-03-22T11:35:45;10.95;;;7.38;;
41903;SDS011;27586;51.124;4.182;2024-03-22T11:38:11;9.48;;;6.70;;
41903;SDS011;27586;51.124;4.182;2024-03-22T11:40:37;12.25;;;6.90;;
41903;SDS011;27586;51.124;4.182;2024-03-22T11:43:03;9.07;;;6.30;;
41903;SDS011;27586;51.124;4.182;2024-03-22T11:45:29;11.50;;;6.70;;
41903;SDS011;27586;51.124;4.182;2024-03-22T11:48:01;14.15;;;6.32;;
41903;SDS011;27586;51.124;4.182;2024-03-22T11:50:27;10.63;;;6.05;;
41903;SDS011;27586;51.124;4.182;2024-03-22T11:52:53;11.68;;;6.50;;
41903;SDS011;27586;51.124;4.182;2024-03-22T11:55:19;7.78;;;5.68;;
41903;SDS011;27586;51.124;4.182;2024-03-22T11:57:47;9.32;;;5.55;;
41903;SDS011;27586;51.124;4.182;2024-03-22T12:00:14;10.02;;;6.43;;
41903;SDS011;27586;51.124;4.182;2024-03-22T12:02:42;10.90;;;5.90;;
41903;SDS011;27586;51.124;4.182;2024-03-22T12:05:08;7.45;;;5.32;;
41903;SDS011;27586;51.124;4.182;2024-03-22T12:07:35;9.15;;;5.25;;
41903;SDS011;27586;51.124;4.182;2024-03-22T12:10:02;8.57;;;5.68;;
41903;SDS011;27586;51.124;4.182;2024-03-22T12:12:28;7.28;;;4.93;;
41903;SDS011;27586;51.124;4.182;2024-03-22T12:14:55;9.38;;;5.93;;
41903;SDS011;27586;51.124;4.182;2024-03-22T12:17:20;8.93;;;5.75;;
41903;SDS011;27586;51.124;4.182;2024-03-22T12:19:46;6.88;;;5.60;;
41903;SDS011;27586;51.124;4.182;2024-03-22T12:22:12;7.70;;;5.85;;
41903;SDS011;27586;51.124;4.182;2024-03-22T12:24:38;6.70;;;6.05;;
41903;SDS011;27586;51.124;4.182;2024-03-22T12:27:04;8.90;;;6.68;;
41903;SDS011;27586;51.124;4.182;2024-03-22T12:29:33;10.07;;;6.78;;
41903;SDS011;27586;51.124;4.182;2024-03-22T12:31:59;9.77;;;6.70;;
41903;SDS011;27586;51.124;4.182;2024-03-22T12:34:29;10.05;;;7.13;;
41903;SDS011;27586;51.124;4.182;2024-03-22T12:36:55;9.07;;;7.13;;
41903;SDS011;27586;51.124;4.182;2024-03-22T12:39:21;8.77;;;6.90;;
41903;SDS011;27586;51.124;4.182;2024-03-22T12:41:46;7.95;;;7.07;;
41903;SDS011;27586;51.124;4.182;2024-03-22T12:44:12;8.38;;;6.65;;
41903;SDS011;27586;51.124;4.182;2024-03-22T12:46:38;11.25;;;8.13;;
41903;SDS011;27586;51.124;4.182;2024-03-22T12:49:04;11.45;;;7.95;;
41903;SDS011;27586;51.124;4.182;2024-03-22T12:51:29;14.43;;;9.52;;
41903;SDS011;27586;51.124;4.182;2024-03-22T12:53:55;11.77;;;9.27;;
41903;SDS011;27586;51.124;4.182;2024-03-22T12:56:21;12.68;;;9.45;;
41903;SDS011;27586;51.124;4.182;2024-03-22T12:58:47;13.15;;;10.63;;
41903;SDS011;27586;51.124;4.182;2024-03-22T13:01:13;14.82;;;11.00;;
41903;SDS011;27586;51.124;4.182;2024-03-22T13:03:39;13.00;;;10.85;;
41903;SDS011;27586;51.124;4.182;2024-03-22T13:06:05;11.70;;;9.93;;
41903;SDS011;27586;51.124;4.182;2024-03-22T13:08:33;12.93;;;9.88;;
41903;SDS011;27586;51.124;4.182;2024-03-22T13:10:59;12.07;;;10.10;;
41903;SDS011;27586;51.124;4.182;2024-03-22T13:13:24;11.25;;;9.95;;
41903;SDS011;27586;51.124;4.182;2024-03-22T13:15:50;12.10;;;10.55;;
41903;SDS011;27586;51.124;4.182;2024-03-22T13:18:16;13.05;;;10.18;;
41903;SDS011;27586;51.124;4.182;2024-03-22T13:20:42;14.43;;;11.90;;
41903;SDS011;27586;51.124;4.182;2024-03-22T13:23:07;13.48;;;11.75;;
41903;SDS011;27586;51.124;4.182;2024-03-22T13:25:34;12.57;;;10.57;;
41903;SDS011;27586;51.124;4.182;2024-03-22T13:28:02;11.70;;;10.57;;
41903;SDS011;27586;51.124;4.182;2024-03-22T13:30:30;12.32;;;11.02;;
41903;SDS011;27586;51.124;4.182;2024-03-22T13:32:56;12.32;;;11.13;;
41903;SDS011;27586;51.124;4.182;2024-03-22T13:35:21;13.50;;;11.15;;
41903;SDS011;27586;51.124;4.182;2024-03-22T13:37:47;14.85;;;12.35;;
41903;SDS011;27586;51.124;4.182;2024-03-22T13:40:13;12.82;;;11.63;;
41903;SDS011;27586;51.124;4.182;2024-03-22T13:42:40;14.23;;;11.32;;
41903;SDS011;27586;51.124;4.182;2024-03-22T13:45:05;13.30;;;12.00;;
41903;SDS011;27586;51.124;4.182;2024-03-22T13:47:32;13.15;;;11.93;;
41903;SDS011;27586;51.124;4.182;2024-03-22T13:49:57;13.05;;;11.20;;
41903;SDS011;27586;51.124;4.182;2024-03-22T13:52:23;11.85;;;10.27;;
41903;SDS011;27586;51.124;4.182;2024-03-22T13:54:49;14.15;;;10.88;;
41903;SDS011;27586;51.124;4.182;2024-03-22T13:57:17;12.38;;;10.77;;
41903;SDS011;27586;51.124;4.182;2024-03-22T13:59:43;11.27;;;10.27;;
41903;SDS011;27586;51.124;4.182;2024-03-22T14:02:09;11.15;;;10.05;;
41903;SDS011;27586;51.124;4.182;2024-03-22T14:04:35;11.23;;;10.02;;
41903;SDS011;27586;51.124;4.182;2024-03-22T14:07:01;11.52;;;10.48;;
41903;SDS011;27586;51.124;4.182;2024-03-22T14:09:30;11.32;;;10.13;;
41903;SDS011;27586;51.124;4.182;2024-03-22T14:11:56;11.90;;;10.85;;
41903;SDS011;27586;51.124;4.182;2024-03-22T14:14:22;11.40;;;10.13;;
41903;SDS011;27586;51.124;4.182;2024-03-22T14:16:49;12.30;;;11.00;;
41903;SDS011;27586;51.124;4.182;2024-03-22T14:19:14;11.65;;;10.40;;
41903;SDS011;27586;51.124;4.182;2024-03-22T14:21:43;11.73;;;10.55;;
41903;SDS011;27586;51.124;4.182;2024-03-22T14:24:08;10.63;;;9.60;;
41903;SDS011;27586;51.124;4.182;2024-03-22T14:26:34;11.13;;;9.98;;